Aviation Digital Data Service (ADDS)

Output produced by TAFs form (0551 UTC 25 February 2018)
found at http://aviationweather.gov/adds/tafs/
 
METAR text: LEMD 250530Z 35002KT CAVOK M03/M07 Q1010 NOSIG
Conditions at: LEMD (MADRID/BARAJAS , ES) observed 0530 UTC 25 February 2018
Temperature: -3.0°C (27°F)
Dewpoint: -7.0°C (19°F) [RH = 74%]
Pressure (altimeter): 29.82 inches Hg (1010.0 mb)
Winds: from the N (350 degrees) at 2 MPH (2 knots; 1.0 m/s)
Visibility: 6 or more miles (10+ km)
Ceiling: ceiling and visibility are OK
Clouds: unknown
Weather: no significant weather observed at this time

Forecast for: LEMD (MADRID/BARAJAS , ES)
Text: TAF LEMD 250500Z 2506/2612 VRB05KT CAVOK TX14/2515Z TNM04/2507Z
Forecast period: 0600 UTC 25 February 2018 to 1200 UTC 26 February 2018
Forecast type: FROM: standard forecast or significant change
Winds: variable direction winds at 6 MPH (5 knots; 2.6 m/s)
Visibility: 6 or more miles (10+ km)
Clouds: not forecast
Weather: no significant weather forecast for this period